createdAt,value
2023-05-06T00:01:15.674Z,12.06
2023-05-06T00:06:25.405Z,11.69
2023-05-06T00:11:35.800Z,11.62
2023-05-06T00:16:45.707Z,11.75
2023-05-06T00:21:54.060Z,11.75
2023-05-06T00:27:03.819Z,11.69
2023-05-06T00:32:13.765Z,11.31
2023-05-06T00:37:23.320Z,11.25
2023-05-06T00:42:33.750Z,11.12
2023-05-06T00:47:42.244Z,11.25
2023-05-06T00:52:51.328Z,11.19
2023-05-06T00:58:00.430Z,11.31
2023-05-06T01:03:09.718Z,11.44
2023-05-06T01:08:19.338Z,11.56
2023-05-06T01:13:29.731Z,11.44
2023-05-06T01:18:39.489Z,11.56
2023-05-06T01:23:49.245Z,11.56
2023-05-06T01:28:57.755Z,11.56
2023-05-06T01:34:07.485Z,11.56
2023-05-06T01:39:15.964Z,11.5
2023-05-06T01:44:25.734Z,11.56
2023-05-06T01:49:36.781Z,11.38
2023-05-06T01:54:45.239Z,11.5
2023-05-06T01:59:55.010Z,11.62
2023-05-06T02:05:03.504Z,11.44
2023-05-06T02:10:13.269Z,11.5
2023-05-06T02:15:23.021Z,11.5
2023-05-06T02:20:31.518Z,11.44
2023-05-06T02:25:41.246Z,11.25
2023-05-06T02:30:51.001Z,11
2023-05-06T02:36:01.403Z,10.94
2023-05-06T02:41:11.162Z,10.75
2023-05-06T02:46:21.093Z,10.69
2023-05-06T02:51:30.683Z,10.69
2023-05-06T02:56:39.162Z,10.75
2023-05-06T03:01:48.956Z,10.81
2023-05-06T03:43:05.121Z,10.81
2023-05-06T03:48:14.363Z,10.81
2023-05-06T03:53:23.957Z,10.88
2023-05-06T03:58:34.361Z,10.81
2023-05-06T04:03:42.977Z,10.81
2023-05-06T04:08:52.623Z,10.81
2023-05-06T04:14:01.727Z,10.81
2023-05-06T04:19:10.841Z,10.81
2023-05-06T04:24:19.327Z,10.88
2023-05-06T04:29:27.807Z,10.88
2023-05-06T04:34:36.924Z,10.88
2023-05-06T04:39:46.053Z,11.06
2023-05-06T04:44:54.549Z,11.12
2023-05-06T04:50:03.040Z,10.88
2023-05-06T04:55:13.435Z,11
2023-05-06T05:00:22.527Z,11.06
2023-05-06T05:05:32.308Z,11.38
2023-05-06T05:10:41.403Z,11.44
2023-05-06T05:15:50.524Z,11.56
2023-05-06T05:20:59.654Z,11.56
2023-05-06T05:26:08.757Z,11.81
2023-05-06T05:31:18.642Z,12.12
2023-05-06T05:36:27.020Z,12.25
2023-05-06T05:41:36.177Z,12.44
2023-05-06T05:46:45.966Z,12.25
2023-05-06T05:51:56.309Z,13.31
2023-05-06T05:57:05.426Z,13.62
2023-05-06T06:02:13.872Z,13.12
2023-05-06T06:07:22.999Z,13.12
2023-05-06T06:12:31.497Z,13.38
2023-05-06T06:17:41.323Z,13.38
2023-05-06T06:22:51.014Z,13.69
2023-05-06T06:28:00.757Z,14.12
2023-05-06T06:33:11.174Z,14.19
2023-05-06T06:38:20.917Z,14.62
2023-05-06T06:43:30.702Z,15.5
2023-05-06T07:24:44.297Z,16.25
2023-05-06T07:29:54.772Z,16.38
2023-05-06T07:35:03.903Z,16.44
2023-05-06T07:40:12.920Z,16.94
2023-05-06T07:45:22.050Z,16.81
2023-05-06T07:50:30.518Z,17
2023-05-06T07:55:40.273Z,17.12
2023-05-06T08:00:49.417Z,17.31
2023-05-06T08:05:59.161Z,17.44
2023-05-06T08:11:07.005Z,17.56
2023-05-06T08:16:17.449Z,18.06
2023-05-06T08:21:27.170Z,18.12
2023-05-06T08:26:36.938Z,18.12
2023-05-06T08:31:45.475Z,18.19
2023-05-06T08:36:54.528Z,18.12
2023-05-06T08:42:03.020Z,18.12
2023-05-06T08:47:12.774Z,18.25
2023-05-06T08:52:22.586Z,18.19
2023-05-06T08:57:31.650Z,18.62
2023-05-06T09:02:43.555Z,19.06
2023-05-06T09:07:49.900Z,19.31
2023-05-06T09:12:59.718Z,19.38
2023-05-06T09:18:08.227Z,19.31
2023-05-06T09:23:17.889Z,19.62
2023-05-06T09:28:27.020Z,19.5
2023-05-06T09:33:36.129Z,19
2023-05-06T09:38:44.608Z,18.62
2023-05-06T09:43:55.645Z,18.69
2023-05-06T09:49:04.129Z,19
2023-05-06T09:54:12.606Z,19.44
2023-05-06T09:59:21.724Z,19.88
2023-05-06T10:04:30.522Z,19.5
2023-05-06T10:09:39.325Z,19.31
2023-05-06T10:14:48.456Z,19.56
2023-05-06T10:19:57.590Z,19.62
2023-05-06T10:25:06.705Z,19.75
2023-05-06T11:11:31.323Z,20.75
2023-05-06T11:16:40.571Z,20.5
2023-05-06T11:21:50.808Z,20.5
2023-05-06T11:26:59.358Z,20.69
2023-05-06T11:32:08.447Z,20.69
2023-05-06T11:37:16.928Z,20.62
2023-05-06T11:42:26.059Z,20.94
2023-05-06T11:47:37.823Z,21
2023-05-06T11:52:46.825Z,20.94
2023-05-06T11:57:56.628Z,20.94
2023-05-06T12:03:05.865Z,20.81
2023-05-06T12:08:28.155Z,21.12
2023-05-06T12:13:23.487Z,20.88
2023-05-06T12:18:32.478Z,21.38
2023-05-06T12:25:01.603Z,21.38
2023-05-06T12:30:13.068Z,21.31
2023-05-06T12:35:23.636Z,21.75
2023-05-06T12:40:34.683Z,20.94
2023-05-06T12:45:45.845Z,21.25
2023-05-06T12:50:58.045Z,21.44
2023-05-06T12:56:09.739Z,21.75
2023-05-06T13:01:20.148Z,21.06
2023-05-06T13:06:29.886Z,21.19
2023-05-06T13:11:40.280Z,21
2023-05-06T13:16:50.088Z,20.5
2023-05-06T13:22:02.356Z,20.88
2023-05-06T13:27:10.845Z,20.62
2023-05-06T13:32:21.917Z,21
2023-05-06T13:37:31.636Z,21.19
2023-05-06T13:42:40.782Z,21.44
2023-05-06T13:47:50.602Z,21.69
2023-05-06T13:52:59.658Z,21.75
2023-05-06T13:58:08.144Z,21.06
2023-05-06T14:03:17.914Z,21.06
2023-05-06T14:08:27.652Z,21.5
2023-05-06T14:13:39.327Z,21.56
2023-05-06T14:18:50.376Z,21.38
2023-05-06T14:23:59.479Z,21.56
2023-05-06T14:29:09.901Z,21.81
2023-05-06T14:34:18.360Z,22.19
2023-05-06T14:39:28.122Z,22.12
2023-05-06T14:44:38.448Z,21.94
2023-05-06T14:49:46.371Z,21.44
2023-05-06T14:54:56.790Z,21.88
2023-05-06T15:00:05.879Z,22
2023-05-06T15:05:15.736Z,22.06
2023-05-06T15:10:24.759Z,21.5
2023-05-06T15:15:33.893Z,21.62
2023-05-06T15:20:44.284Z,21.31
2023-05-06T15:25:54.706Z,20.88
2023-05-06T16:02:28.478Z,19.31
2023-05-06T16:12:20.106Z,18.06
2023-05-06T16:17:29.212Z,17.81
2023-05-06T16:22:40.001Z,17.56
2023-05-06T16:27:47.332Z,17.5
2023-05-06T16:32:56.490Z,17.31
2023-05-06T16:38:06.212Z,17.12
2023-05-06T16:43:14.685Z,17.12
2023-05-06T16:48:23.918Z,16.81
2023-05-06T16:53:32.941Z,16.88
2023-05-06T16:58:42.525Z,16.94
2023-05-06T17:03:51.160Z,16.62
2023-05-06T17:09:00.444Z,16.62
2023-05-06T17:14:09.400Z,16.56
2023-05-06T17:19:22.364Z,16.44
2023-05-06T17:24:30.917Z,16.12
2023-05-06T17:29:38.695Z,16.25
2023-05-06T17:34:48.442Z,16.12
2023-05-06T17:39:58.229Z,16.25
2023-05-06T17:45:08.287Z,16
2023-05-06T17:50:17.745Z,15.25
2023-05-06T17:55:27.481Z,15.5
2023-05-06T18:00:36.598Z,15.75
2023-05-06T18:05:45.721Z,15.69
2023-05-06T18:10:53.562Z,15.69
2023-05-06T18:16:05.308Z,15.19
2023-05-06T18:21:14.370Z,15.25
2023-05-06T18:26:45.634Z,15.06
2023-05-06T18:31:34.649Z,15.12
2023-05-06T18:36:43.012Z,15.12
2023-05-06T18:41:52.766Z,15.06
2023-05-06T18:47:01.242Z,15.12
2023-05-06T18:52:10.372Z,14.94
2023-05-06T18:57:18.894Z,15.19
2023-05-06T19:02:28.085Z,15.12
2023-05-06T19:07:37.100Z,15.06
2023-05-06T19:12:44.972Z,15.19
2023-05-06T19:17:54.105Z,15.19
2023-05-06T19:59:08.294Z,15.06
2023-05-06T20:04:18.140Z,15.12
2023-05-06T20:09:27.266Z,15.06
2023-05-06T20:14:36.926Z,15.12
2023-05-06T20:19:46.716Z,15.06
2023-05-06T20:24:55.214Z,14.94
2023-05-06T20:30:05.011Z,14.94
2023-05-06T20:35:15.966Z,14.81
2023-05-06T20:40:25.734Z,14.88
2023-05-06T20:45:35.548Z,14.88
2023-05-06T20:50:43.993Z,14.88
2023-05-06T20:55:53.865Z,14.69
2023-05-06T21:01:02.240Z,14.69
2023-05-06T21:06:11.322Z,14.69
2023-05-06T21:11:21.086Z,14.56
2023-05-06T21:16:30.199Z,14.62
2023-05-06T21:21:38.700Z,14.44
2023-05-06T21:26:47.818Z,14.5
2023-05-06T21:31:57.544Z,14.56
2023-05-06T21:37:06.042Z,14.56
2023-05-06T21:42:14.530Z,14.56
2023-05-06T21:47:24.983Z,14.5
2023-05-06T21:52:34.673Z,14.5
2023-05-06T21:57:45.843Z,14.5
2023-05-06T22:02:53.719Z,14.62
2023-05-06T22:08:02.680Z,14.62
2023-05-06T22:13:12.507Z,14.5
2023-05-06T22:18:20.308Z,14.5
2023-05-06T22:23:29.403Z,14.5
2023-05-06T22:28:38.521Z,14.38
2023-05-06T22:33:47.640Z,14.38
2023-05-06T22:38:56.833Z,14.31
2023-05-06T22:44:06.550Z,14.25
2023-05-06T22:49:15.654Z,14.12
2023-05-06T22:54:24.757Z,14
2023-05-06T22:59:33.879Z,14
2023-05-06T23:04:43.654Z,14.19
2023-05-06T23:45:57.242Z,14
2023-05-06T23:51:05.195Z,14.06
2023-05-06T23:56:14.844Z,14.12
